Aviation Digital Data Service (ADDS)

Output produced by METARs form (1717 UTC 24 June 2019)
found at http://www.aviationweather.gov/metar/data/
 
Forecast for: LIBD (BARI/PALESE MACC, IT)
Text: TAF LIBD 241100Z 2412/2512 36012KT CAVOK
Forecast period: 1200 to 1900 UTC 24 June 2019
Forecast type: FROM: standard forecast or significant change
Winds: from the N (360 degrees) at 14 MPH (12 knots; 6.2 m/s)
Visibility: 6 or more miles 10+ km)
Ceiling: unknown
Clouds: missing
Weather: NSW  (no significant weather)
Text: BECMG 2419/2421 29012KT
Forecast period: 1900 UTC 24 June 2019 to 0700 UTC 25 June 2019
Forecast type: BECOMING: Conditions expected to become as follows by 2100 UTC 24 June 2019
Winds: from the WNW (290 degrees) at 14 MPH (12 knots; 6.2 m/s)
Visibility: 6 or more miles 10+ km)
Ceiling: unknown
Clouds: missing
Weather: NSW  (no significant weather)
Text: BECMG 2507/2509 36014KT
Forecast period: 0700 to 1200 UTC 25 June 2019
Forecast type: BECOMING: Conditions expected to become as follows by 0900 UTC 25 June 2019
Winds: from the N (360 degrees) at 16 MPH (14 knots; 7.2 m/s)
Visibility: 6 or more miles 10+ km)
Ceiling: unknown
Clouds: missing
Weather: NSW  (no significant weather)